sensor_id;sensor_type;location;lat;lon;timestamp;temperature;humidity
17827;DHT22;9038;48.208;16.308;2023-07-13T00:13:37;22.90;99.90
17827;DHT22;9038;48.208;16.308;2023-07-13T00:15:39;22.80;99.90
17827;DHT22;9038;48.208;16.308;2023-07-13T00:17:42;22.90;99.90
17827;DHT22;9038;48.208;16.308;2023-07-13T00:19:47;22.80;99.90
17827;DHT22;9038;48.208;16.308;2023-07-13T00:21:48;22.70;99.90
17827;DHT22;9038;48.208;16.308;2023-07-13T00:23:50;22.70;99.90
17827;DHT22;9038;48.208;16.308;2023-07-13T00:25:51;22.70;99.90
17827;DHT22;9038;48.208;16.308;2023-07-13T00:27:53;22.70;99.90
17827;DHT22;9038;48.208;16.308;2023-07-13T00:29:55;22.80;99.90
17827;DHT22;9038;48.208;16.308;2023-07-13T00:31:57;22.80;99.90
17827;DHT22;9038;48.208;16.308;2023-07-13T00:33:59;22.70;99.90
17827;DHT22;9038;48.208;16.308;2023-07-13T00:36:03;22.80;99.90
17827;DHT22;9038;48.208;16.308;2023-07-13T00:38:04;22.70;99.90
17827;DHT22;9038;48.208;16.308;2023-07-13T00:40:07;22.60;99.90
17827;DHT22;9038;48.208;16.308;2023-07-13T00:42:09;22.50;99.90
17827;DHT22;9038;48.208;16.308;2023-07-13T00:44:13;22.50;99.90
17827;DHT22;9038;48.208;16.308;2023-07-13T00:46:25;22.50;99.90
17827;DHT22;9038;48.208;16.308;2023-07-13T00:48:32;22.50;99.90
17827;DHT22;9038;48.208;16.308;2023-07-13T00:50:34;22.50;99.90
17827;DHT22;9038;48.208;16.308;2023-07-13T00:52:39;22.50;99.90
17827;DHT22;9038;48.208;16.308;2023-07-13T00:54:46;22.60;99.90
17827;DHT22;9038;48.208;16.308;2023-07-13T00:56:51;22.70;99.90
17827;DHT22;9038;48.208;16.308;2023-07-13T00:58:53;22.70;99.90
17827;DHT22;9038;48.208;16.308;2023-07-13T01:00:54;22.80;99.90
17827;DHT22;9038;48.208;16.308;2023-07-13T01:02:57;22.90;99.90
17827;DHT22;9038;48.208;16.308;2023-07-13T01:04:59;22.90;99.90
17827;DHT22;9038;48.208;16.308;2023-07-13T01:07:02;23.00;99.90
17827;DHT22;9038;48.208;16.308;2023-07-13T01:09:08;23.10;99.90
17827;DHT22;9038;48.208;16.308;2023-07-13T01:11:10;23.10;99.90
17827;DHT22;9038;48.208;16.308;2023-07-13T01:13:12;23.20;99.90
17827;DHT22;9038;48.208;16.308;2023-07-13T01:15:33;23.20;99.90
17827;DHT22;9038;48.208;16.308;2023-07-13T01:17:35;23.30;99.90
17827;DHT22;9038;48.208;16.308;2023-07-13T01:19:39;23.20;99.90
17827;DHT22;9038;48.208;16.308;2023-07-13T01:21:43;23.30;99.90
17827;DHT22;9038;48.208;16.308;2023-07-13T01:23:45;23.30;99.90
17827;DHT22;9038;48.208;16.308;2023-07-13T01:25:47;23.30;99.90
17827;DHT22;9038;48.208;16.308;2023-07-13T01:27:49;23.30;99.90
17827;DHT22;9038;48.208;16.308;2023-07-13T01:29:52;23.30;99.90
17827;DHT22;9038;48.208;16.308;2023-07-13T01:31:54;23.30;99.90
17827;DHT22;9038;48.208;16.308;2023-07-13T01:33:55;23.30;99.90
17827;DHT22;9038;48.208;16.308;2023-07-13T01:35:58;23.40;99.90
17827;DHT22;9038;48.208;16.308;2023-07-13T01:38:01;23.50;99.90
17827;DHT22;9038;48.208;16.308;2023-07-13T01:40:02;23.50;99.90
17827;DHT22;9038;48.208;16.308;2023-07-13T01:42:05;23.50;99.90
17827;DHT22;9038;48.208;16.308;2023-07-13T01:44:07;23.50;99.90
17827;DHT22;9038;48.208;16.308;2023-07-13T01:46:09;23.60;99.90
17827;DHT22;9038;48.208;16.308;2023-07-13T01:48:11;23.50;99.90
17827;DHT22;9038;48.208;16.308;2023-07-13T01:50:13;23.60;99.90
17827;DHT22;9038;48.208;16.308;2023-07-13T01:52:15;23.70;99.90
17827;DHT22;9038;48.208;16.308;2023-07-13T01:54:18;23.70;99.90
17827;DHT22;9038;48.208;16.308;2023-07-13T01:56:20;23.80;99.90
17827;DHT22;9038;48.208;16.308;2023-07-13T01:58:22;23.80;99.90
17827;DHT22;9038;48.208;16.308;2023-07-13T02:00:24;23.80;99.90
17827;DHT22;9038;48.208;16.308;2023-07-13T02:02:26;23.90;99.90
17827;DHT22;9038;48.208;16.308;2023-07-13T02:04:27;23.90;99.90
17827;DHT22;9038;48.208;16.308;2023-07-13T02:06:29;23.90;99.90
17827;DHT22;9038;48.208;16.308;2023-07-13T02:08:31;23.90;99.90
17827;DHT22;9038;48.208;16.308;2023-07-13T02:10:35;24.00;99.90
17827;DHT22;9038;48.208;16.308;2023-07-13T02:12:38;24.00;99.90
17827;DHT22;9038;48.208;16.308;2023-07-13T02:14:40;24.00;99.90
17827;DHT22;9038;48.208;16.308;2023-07-13T02:16:42;24.00;99.90
17827;DHT22;9038;48.208;16.308;2023-07-13T02:18:44;24.00;99.90
17827;DHT22;9038;48.208;16.308;2023-07-13T02:20:46;24.00;99.90
17827;DHT22;9038;48.208;16.308;2023-07-13T02:22:47;24.10;99.90
17827;DHT22;9038;48.208;16.308;2023-07-13T02:24:49;24.10;99.90
17827;DHT22;9038;48.208;16.308;2023-07-13T02:26:52;24.10;99.90
17827;DHT22;9038;48.208;16.308;2023-07-13T02:28:54;24.10;99.90
17827;DHT22;9038;48.208;16.308;2023-07-13T02:31:03;24.10;99.90
17827;DHT22;9038;48.208;16.308;2023-07-13T02:33:05;24.10;99.90
17827;DHT22;9038;48.208;16.308;2023-07-13T02:35:07;24.00;99.90
17827;DHT22;9038;48.208;16.308;2023-07-13T02:37:09;24.00;99.90
17827;DHT22;9038;48.208;16.308;2023-07-13T02:39:12;24.10;99.90
17827;DHT22;9038;48.208;16.308;2023-07-13T02:41:14;24.00;99.90
17827;DHT22;9038;48.208;16.308;2023-07-13T02:43:17;24.00;99.90
17827;DHT22;9038;48.208;16.308;2023-07-13T02:45:19;24.00;99.90
17827;DHT22;9038;48.208;16.308;2023-07-13T02:47:27;24.00;99.90
17827;DHT22;9038;48.208;16.308;2023-07-13T02:49:29;24.00;99.90
17827;DHT22;9038;48.208;16.308;2023-07-13T02:51:31;23.90;99.90
17827;DHT22;9038;48.208;16.308;2023-07-13T02:53:34;23.90;99.90
17827;DHT22;9038;48.208;16.308;2023-07-13T02:55:36;23.90;99.90
17827;DHT22;9038;48.208;16.308;2023-07-13T02:57:39;23.90;99.90
17827;DHT22;9038;48.208;16.308;2023-07-13T02:59:42;23.80;99.90
17827;DHT22;9038;48.208;16.308;2023-07-13T03:01:44;23.70;99.90
17827;DHT22;9038;48.208;16.308;2023-07-13T03:03:46;23.80;99.90
17827;DHT22;9038;48.208;16.308;2023-07-13T03:05:47;23.70;99.90
17827;DHT22;9038;48.208;16.308;2023-07-13T03:07:50;23.60;99.90
17827;DHT22;9038;48.208;16.308;2023-07-13T03:09:54;23.70;99.90
17827;DHT22;9038;48.208;16.308;2023-07-13T03:11:56;23.60;99.90
17827;DHT22;9038;48.208;16.308;2023-07-13T03:13:58;23.50;99.90
17827;DHT22;9038;48.208;16.308;2023-07-13T03:16:01;23.50;99.90
17827;DHT22;9038;48.208;16.308;2023-07-13T03:18:03;23.50;99.90
17827;DHT22;9038;48.208;16.308;2023-07-13T03:20:07;23.40;99.90
17827;DHT22;9038;48.208;16.308;2023-07-13T03:22:09;23.30;99.90
17827;DHT22;9038;48.208;16.308;2023-07-13T03:24:11;23.30;99.90
17827;DHT22;9038;48.208;16.308;2023-07-13T03:26:16;23.20;99.90
17827;DHT22;9038;48.208;16.308;2023-07-13T03:28:18;23.20;99.90
17827;DHT22;9038;48.208;16.308;2023-07-13T03:30:20;23.10;99.90
17827;DHT22;9038;48.208;16.308;2023-07-13T03:32:23;22.90;99.90
17827;DHT22;9038;48.208;16.308;2023-07-13T03:34:25;22.80;99.90
17827;DHT22;9038;48.208;16.308;2023-07-13T03:36:28;22.70;99.90
17827;DHT22;9038;48.208;16.308;2023-07-13T03:38:30;22.70;99.90
17827;DHT22;9038;48.208;16.308;2023-07-13T03:40:33;22.60;99.90
17827;DHT22;9038;48.208;16.308;2023-07-13T03:42:35;22.50;99.90
17827;DHT22;9038;48.208;16.308;2023-07-13T03:44:36;22.40;99.90
17827;DHT22;9038;48.208;16.308;2023-07-13T03:46:38;22.20;99.90
17827;DHT22;9038;48.208;16.308;2023-07-13T03:48:41;22.20;99.90
17827;DHT22;9038;48.208;16.308;2023-07-13T03:50:45;22.10;99.90
17827;DHT22;9038;48.208;16.308;2023-07-13T03:52:46;22.10;99.90
17827;DHT22;9038;48.208;16.308;2023-07-13T03:54:48;22.10;99.90
17827;DHT22;9038;48.208;16.308;2023-07-13T03:56:50;22.20;99.90
17827;DHT22;9038;48.208;16.308;2023-07-13T03:58:52;22.10;99.90
17827;DHT22;9038;48.208;16.308;2023-07-13T04:00:55;22.20;99.90
17827;DHT22;9038;48.208;16.308;2023-07-13T04:02:56;22.10;99.90
17827;DHT22;9038;48.208;16.308;2023-07-13T04:04:59;22.10;99.90
17827;DHT22;9038;48.208;16.308;2023-07-13T04:07:01;22.10;99.90
17827;DHT22;9038;48.208;16.308;2023-07-13T04:09:04;22.00;99.90
17827;DHT22;9038;48.208;16.308;2023-07-13T04:11:07;22.00;99.90
17827;DHT22;9038;48.208;16.308;2023-07-13T04:13:08;21.90;99.90
17827;DHT22;9038;48.208;16.308;2023-07-13T04:15:10;21.90;99.90
17827;DHT22;9038;48.208;16.308;2023-07-13T04:17:12;21.80;99.90
17827;DHT22;9038;48.208;16.308;2023-07-13T04:19:14;21.80;99.90
17827;DHT22;9038;48.208;16.308;2023-07-13T04:21:17;21.80;99.90
17827;DHT22;9038;48.208;16.308;2023-07-13T04:23:19;21.80;99.90
17827;DHT22;9038;48.208;16.308;2023-07-13T04:25:22;21.80;99.90
17827;DHT22;9038;48.208;16.308;2023-07-13T04:27:23;21.80;99.90
17827;DHT22;9038;48.208;16.308;2023-07-13T04:29:25;21.80;99.90
17827;DHT22;9038;48.208;16.308;2023-07-13T04:31:27;21.80;99.90
17827;DHT22;9038;48.208;16.308;2023-07-13T04:33:28;21.70;99.90
17827;DHT22;9038;48.208;16.308;2023-07-13T04:35:30;21.70;99.90
17827;DHT22;9038;48.208;16.308;2023-07-13T04:37:33;21.60;99.90
17827;DHT22;9038;48.208;16.308;2023-07-13T04:39:35;21.70;99.90
17827;DHT22;9038;48.208;16.308;2023-07-13T04:41:37;21.70;99.90
17827;DHT22;9038;48.208;16.308;2023-07-13T04:43:39;21.70;99.90
17827;DHT22;9038;48.208;16.308;2023-07-13T04:45:41;21.70;99.90
17827;DHT22;9038;48.208;16.308;2023-07-13T04:47:42;21.80;99.90
17827;DHT22;9038;48.208;16.308;2023-07-13T04:49:44;21.80;99.90
17827;DHT22;9038;48.208;16.308;2023-07-13T04:51:46;21.80;99.90
17827;DHT22;9038;48.208;16.308;2023-07-13T04:53:49;21.90;99.90
17827;DHT22;9038;48.208;16.308;2023-07-13T04:55:50;21.90;99.90
17827;DHT22;9038;48.208;16.308;2023-07-13T04:57:52;22.00;99.90
17827;DHT22;9038;48.208;16.308;2023-07-13T04:59:53;22.00;99.90
17827;DHT22;9038;48.208;16.308;2023-07-13T05:02:06;22.10;99.90
17827;DHT22;9038;48.208;16.308;2023-07-13T05:04:08;22.20;99.90
17827;DHT22;9038;48.208;16.308;2023-07-13T05:06:10;22.30;99.90
17827;DHT22;9038;48.208;16.308;2023-07-13T05:08:10;22.30;99.90
17827;DHT22;9038;48.208;16.308;2023-07-13T05:10:13;22.30;99.90
17827;DHT22;9038;48.208;16.308;2023-07-13T05:12:15;22.30;99.90
17827;DHT22;9038;48.208;16.308;2023-07-13T05:14:17;22.30;99.90
17827;DHT22;9038;48.208;16.308;2023-07-13T05:16:18;22.30;99.90
17827;DHT22;9038;48.208;16.308;2023-07-13T05:18:20;22.40;99.90
17827;DHT22;9038;48.208;16.308;2023-07-13T05:20:21;22.40;99.90
17827;DHT22;9038;48.208;16.308;2023-07-13T05:22:23;22.50;99.90
17827;DHT22;9038;48.208;16.308;2023-07-13T05:24:24;22.50;99.90
17827;DHT22;9038;48.208;16.308;2023-07-13T05:26:27;22.50;99.90
17827;DHT22;9038;48.208;16.308;2023-07-13T05:28:29;22.60;99.90
17827;DHT22;9038;48.208;16.308;2023-07-13T05:30:31;22.70;99.90
17827;DHT22;9038;48.208;16.308;2023-07-13T05:32:34;22.90;99.90
17827;DHT22;9038;48.208;16.308;2023-07-13T05:34:36;23.00;99.90
17827;DHT22;9038;48.208;16.308;2023-07-13T05:36:37;23.10;99.90
17827;DHT22;9038;48.208;16.308;2023-07-13T05:38:39;23.10;99.90
17827;DHT22;9038;48.208;16.308;2023-07-13T05:40:42;23.10;99.90
17827;DHT22;9038;48.208;16.308;2023-07-13T05:42:44;23.10;99.90
17827;DHT22;9038;48.208;16.308;2023-07-13T05:44:46;23.00;99.90
17827;DHT22;9038;48.208;16.308;2023-07-13T05:46:47;22.90;99.90
17827;DHT22;9038;48.208;16.308;2023-07-13T05:48:49;22.90;99.90
17827;DHT22;9038;48.208;16.308;2023-07-13T05:50:50;22.90;99.90
17827;DHT22;9038;48.208;16.308;2023-07-13T05:52:51;22.80;99.90
17827;DHT22;9038;48.208;16.308;2023-07-13T05:54:53;22.80;99.90
17827;DHT22;9038;48.208;16.308;2023-07-13T05:56:55;22.70;99.90
17827;DHT22;9038;48.208;16.308;2023-07-13T05:58:58;22.70;99.90
17827;DHT22;9038;48.208;16.308;2023-07-13T06:01:01;22.60;99.90
17827;DHT22;9038;48.208;16.308;2023-07-13T06:03:03;22.60;99.90
17827;DHT22;9038;48.208;16.308;2023-07-13T06:05:07;22.50;99.90
17827;DHT22;9038;48.208;16.308;2023-07-13T06:07:09;22.50;99.90
17827;DHT22;9038;48.208;16.308;2023-07-13T06:09:10;22.40;99.90
17827;DHT22;9038;48.208;16.308;2023-07-13T06:11:13;22.40;99.90
17827;DHT22;9038;48.208;16.308;2023-07-13T06:13:14;22.40;99.90
17827;DHT22;9038;48.208;16.308;2023-07-13T06:15:17;22.40;99.90
17827;DHT22;9038;48.208;16.308;2023-07-13T06:17:19;22.40;99.90
17827;DHT22;9038;48.208;16.308;2023-07-13T06:19:21;22.40;99.90
17827;DHT22;9038;48.208;16.308;2023-07-13T06:21:22;22.40;99.90
17827;DHT22;9038;48.208;16.308;2023-07-13T06:23:24;22.30;99.90
17827;DHT22;9038;48.208;16.308;2023-07-13T06:25:26;22.40;99.90
17827;DHT22;9038;48.208;16.308;2023-07-13T06:27:27;22.30;99.90
17827;DHT22;9038;48.208;16.308;2023-07-13T06:29:29;22.30;99.90
17827;DHT22;9038;48.208;16.308;2023-07-13T06:31:33;22.30;99.90
17827;DHT22;9038;48.208;16.308;2023-07-13T06:33:34;22.40;99.90
17827;DHT22;9038;48.208;16.308;2023-07-13T06:35:37;22.40;99.90
17827;DHT22;9038;48.208;16.308;2023-07-13T06:37:39;22.40;99.90
17827;DHT22;9038;48.208;16.308;2023-07-13T06:39:40;22.40;99.90
17827;DHT22;9038;48.208;16.308;2023-07-13T06:41:42;22.40;99.90
17827;DHT22;9038;48.208;16.308;2023-07-13T06:43:44;22.40;99.90
17827;DHT22;9038;48.208;16.308;2023-07-13T06:45:46;22.40;99.90
17827;DHT22;9038;48.208;16.308;2023-07-13T06:47:51;22.40;99.90
17827;DHT22;9038;48.208;16.308;2023-07-13T06:49:53;22.50;99.90
17827;DHT22;9038;48.208;16.308;2023-07-13T06:51:54;22.50;99.90
17827;DHT22;9038;48.208;16.308;2023-07-13T06:53:56;22.60;99.90
17827;DHT22;9038;48.208;16.308;2023-07-13T06:55:58;22.60;99.90
17827;DHT22;9038;48.208;16.308;2023-07-13T06:57:59;22.70;99.90
17827;DHT22;9038;48.208;16.308;2023-07-13T07:00:00;22.80;99.90
17827;DHT22;9038;48.208;16.308;2023-07-13T07:02:02;22.80;99.90
17827;DHT22;9038;48.208;16.308;2023-07-13T07:04:05;22.80;99.90
17827;DHT22;9038;48.208;16.308;2023-07-13T07:06:12;22.90;99.90
17827;DHT22;9038;48.208;16.308;2023-07-13T07:08:14;23.00;99.90
17827;DHT22;9038;48.208;16.308;2023-07-13T07:10:15;23.10;99.90
17827;DHT22;9038;48.208;16.308;2023-07-13T07:12:17;23.30;99.90
17827;DHT22;9038;48.208;16.308;2023-07-13T07:14:18;23.50;99.90
17827;DHT22;9038;48.208;16.308;2023-07-13T07:16:20;23.50;99.90
17827;DHT22;9038;48.208;16.308;2023-07-13T07:18:22;23.60;99.90
17827;DHT22;9038;48.208;16.308;2023-07-13T07:20:25;23.60;99.90
17827;DHT22;9038;48.208;16.308;2023-07-13T07:22:28;23.60;99.90
17827;DHT22;9038;48.208;16.308;2023-07-13T07:24:30;23.60;99.90
17827;DHT22;9038;48.208;16.308;2023-07-13T07:26:31;23.60;99.90
17827;DHT22;9038;48.208;16.308;2023-07-13T07:28:33;23.70;99.90
17827;DHT22;9038;48.208;16.308;2023-07-13T07:30:34;23.70;99.90
17827;DHT22;9038;48.208;16.308;2023-07-13T07:32:36;23.70;99.90
17827;DHT22;9038;48.208;16.308;2023-07-13T07:34:38;23.80;99.90
17827;DHT22;9038;48.208;16.308;2023-07-13T07:36:41;23.90;99.90
17827;DHT22;9038;48.208;16.308;2023-07-13T07:38:43;23.90;99.90
17827;DHT22;9038;48.208;16.308;2023-07-13T07:40:45;24.00;99.90
17827;DHT22;9038;48.208;16.308;2023-07-13T07:42:46;24.00;99.90
17827;DHT22;9038;48.208;16.308;2023-07-13T07:44:48;24.00;99.90
17827;DHT22;9038;48.208;16.308;2023-07-13T07:46:50;24.00;99.90
17827;DHT22;9038;48.208;16.308;2023-07-13T07:48:51;24.00;99.90
17827;DHT22;9038;48.208;16.308;2023-07-13T07:50:53;24.00;99.90
17827;DHT22;9038;48.208;16.308;2023-07-13T07:52:56;24.00;99.90
17827;DHT22;9038;48.208;16.308;2023-07-13T07:54:58;24.00;99.90
17827;DHT22;9038;48.208;16.308;2023-07-13T07:57:00;24.10;99.90
17827;DHT22;9038;48.208;16.308;2023-07-13T07:59:01;24.20;99.90
17827;DHT22;9038;48.208;16.308;2023-07-13T08:01:11;24.50;99.90
17827;DHT22;9038;48.208;16.308;2023-07-13T08:03:12;24.80;99.90
17827;DHT22;9038;48.208;16.308;2023-07-13T08:05:14;25.30;99.90
17827;DHT22;9038;48.208;16.308;2023-07-13T08:07:16;25.80;99.90
17827;DHT22;9038;48.208;16.308;2023-07-13T08:09:18;26.10;99.90
17827;DHT22;9038;48.208;16.308;2023-07-13T08:11:20;26.40;99.90
17827;DHT22;9038;48.208;16.308;2023-07-13T08:13:22;26.60;99.90
17827;DHT22;9038;48.208;16.308;2023-07-13T08:21:29;29.20;99.90
17827;DHT22;9038;48.208;16.308;2023-07-13T08:23:31;29.60;98.90
17827;DHT22;9038;48.208;16.308;2023-07-13T08:25:35;30.40;95.30
17827;DHT22;9038;48.208;16.308;2023-07-13T08:27:36;31.30;92.30
17827;DHT22;9038;48.208;16.308;2023-07-13T08:29:38;32.10;89.00
17827;DHT22;9038;48.208;16.308;2023-07-13T08:31:40;32.70;82.40
17827;DHT22;9038;48.208;16.308;2023-07-13T08:33:42;33.40;79.90
17827;DHT22;9038;48.208;16.308;2023-07-13T08:35:45;33.60;75.10
17827;DHT22;9038;48.208;16.308;2023-07-13T08:37:53;33.70;72.30
17827;DHT22;9038;48.208;16.308;2023-07-13T08:40:02;34.00;70.80
17827;DHT22;9038;48.208;16.308;2023-07-13T08:42:07;34.10;68.10
17827;DHT22;9038;48.208;16.308;2023-07-13T08:44:15;34.40;67.20
17827;DHT22;9038;48.208;16.308;2023-07-13T08:46:20;34.70;65.80
17827;DHT22;9038;48.208;16.308;2023-07-13T08:48:26;35.30;64.60
17827;DHT22;9038;48.208;16.308;2023-07-13T08:50:30;35.80;59.90
17827;DHT22;9038;48.208;16.308;2023-07-13T08:52:34;36.10;59.30
17827;DHT22;9038;48.208;16.308;2023-07-13T08:54:38;36.30;57.00
17827;DHT22;9038;48.208;16.308;2023-07-13T08:56:43;36.20;57.70
17827;DHT22;9038;48.208;16.308;2023-07-13T08:58:48;36.50;57.50
17827;DHT22;9038;48.208;16.308;2023-07-13T09:00:52;36.70;56.40
17827;DHT22;9038;48.208;16.308;2023-07-13T09:02:58;36.90;54.90
17827;DHT22;9038;48.208;16.308;2023-07-13T09:05:02;36.80;54.80
17827;DHT22;9038;48.208;16.308;2023-07-13T09:07:05;36.30;55.40
17827;DHT22;9038;48.208;16.308;2023-07-13T09:09:10;36.50;55.30
17827;DHT22;9038;48.208;16.308;2023-07-13T09:11:18;36.80;54.60
17827;DHT22;9038;48.208;16.308;2023-07-13T09:13:25;37.40;53.80
17827;DHT22;9038;48.208;16.308;2023-07-13T09:15:31;38.20;53.00
17827;DHT22;9038;48.208;16.308;2023-07-13T09:17:33;38.30;51.10
17827;DHT22;9038;48.208;16.308;2023-07-13T09:19:36;38.20;51.30
17827;DHT22;9038;48.208;16.308;2023-07-13T09:21:39;37.80;51.80
17827;DHT22;9038;48.208;16.308;2023-07-13T09:23:42;37.20;51.80
17827;DHT22;9038;48.208;16.308;2023-07-13T09:25:44;36.90;52.50
17827;DHT22;9038;48.208;16.308;2023-07-13T09:27:46;36.80;52.80
17827;DHT22;9038;48.208;16.308;2023-07-13T09:29:50;36.90;52.90
17827;DHT22;9038;48.208;16.308;2023-07-13T09:31:55;37.00;52.90
17827;DHT22;9038;48.208;16.308;2023-07-13T09:33:59;36.70;52.40
17827;DHT22;9038;48.208;16.308;2023-07-13T09:36:01;36.00;53.30
17827;DHT22;9038;48.208;16.308;2023-07-13T09:38:06;35.30;54.00
17827;DHT22;9038;48.208;16.308;2023-07-13T09:40:17;34.80;55.90
17827;DHT22;9038;48.208;16.308;2023-07-13T09:42:20;35.40;55.30
17827;DHT22;9038;48.208;16.308;2023-07-13T09:46:25;37.00;52.00
17827;DHT22;9038;48.208;16.308;2023-07-13T09:48:30;37.80;51.00
17827;DHT22;9038;48.208;16.308;2023-07-13T09:50:34;38.30;49.70
17827;DHT22;9038;48.208;16.308;2023-07-13T09:52:40;38.50;48.70
17827;DHT22;9038;48.208;16.308;2023-07-13T09:54:44;38.50;48.80
17827;DHT22;9038;48.208;16.308;2023-07-13T09:56:46;38.40;48.10
17827;DHT22;9038;48.208;16.308;2023-07-13T09:58:47;38.30;48.40
17827;DHT22;9038;48.208;16.308;2023-07-13T10:00:56;38.50;47.50
17827;DHT22;9038;48.208;16.308;2023-07-13T10:03:03;38.50;47.50
17827;DHT22;9038;48.208;16.308;2023-07-13T10:05:06;38.40;48.20
17827;DHT22;9038;48.208;16.308;2023-07-13T10:07:11;38.40;47.90
17827;DHT22;9038;48.208;16.308;2023-07-13T10:09:15;38.00;47.90
17827;DHT22;9038;48.208;16.308;2023-07-13T10:11:18;37.50;48.20
17827;DHT22;9038;48.208;16.308;2023-07-13T10:13:24;37.00;49.20
17827;DHT22;9038;48.208;16.308;2023-07-13T10:15:25;36.30;50.90
17827;DHT22;9038;48.208;16.308;2023-07-13T10:17:29;35.90;50.60
17827;DHT22;9038;48.208;16.308;2023-07-13T10:19:32;35.60;50.50
17827;DHT22;9038;48.208;16.308;2023-07-13T10:21:35;35.50;51.10
17827;DHT22;9038;48.208;16.308;2023-07-13T10:23:38;35.90;50.60
17827;DHT22;9038;48.208;16.308;2023-07-13T10:25:41;36.20;50.60
17827;DHT22;9038;48.208;16.308;2023-07-13T10:27:45;36.40;50.30
17827;DHT22;9038;48.208;16.308;2023-07-13T10:29:48;36.90;49.30
17827;DHT22;9038;48.208;16.308;2023-07-13T10:31:52;37.30;48.80
17827;DHT22;9038;48.208;16.308;2023-07-13T10:33:54;38.00;47.20
17827;DHT22;9038;48.208;16.308;2023-07-13T10:35:56;37.90;47.20
17827;DHT22;9038;48.208;16.308;2023-07-13T10:38:04;37.30;47.90
17827;DHT22;9038;48.208;16.308;2023-07-13T10:40:11;36.50;48.60
17827;DHT22;9038;48.208;16.308;2023-07-13T10:42:15;36.00;48.90
17827;DHT22;9038;48.208;16.308;2023-07-13T10:44:21;35.50;49.90
17827;DHT22;9038;48.208;16.308;2023-07-13T10:46:26;35.30;51.00
17827;DHT22;9038;48.208;16.308;2023-07-13T10:48:30;35.70;50.60
17827;DHT22;9038;48.208;16.308;2023-07-13T10:50:32;36.20;49.40
17827;DHT22;9038;48.208;16.308;2023-07-13T10:52:40;36.40;49.00
17827;DHT22;9038;48.208;16.308;2023-07-13T10:54:44;36.70;48.50
17827;DHT22;9038;48.208;16.308;2023-07-13T10:56:48;36.50;47.60
17827;DHT22;9038;48.208;16.308;2023-07-13T10:59:01;36.20;47.80
17827;DHT22;9038;48.208;16.308;2023-07-13T11:01:03;35.80;47.80
17827;DHT22;9038;48.208;16.308;2023-07-13T11:03:10;35.70;48.50
17827;DHT22;9038;48.208;16.308;2023-07-13T11:05:17;35.60;48.50
17827;DHT22;9038;48.208;16.308;2023-07-13T11:07:24;35.30;48.90
17827;DHT22;9038;48.208;16.308;2023-07-13T11:09:37;35.40;49.30
17827;DHT22;9038;48.208;16.308;2023-07-13T11:11:42;35.50;48.70
17827;DHT22;9038;48.208;16.308;2023-07-13T11:13:57;35.60;47.80
17827;DHT22;9038;48.208;16.308;2023-07-13T11:16:01;35.20;48.30
17827;DHT22;9038;48.208;16.308;2023-07-13T11:18:19;34.60;49.20
17827;DHT22;9038;48.208;16.308;2023-07-13T11:20:31;34.60;49.80
17827;DHT22;9038;48.208;16.308;2023-07-13T11:22:41;34.60;49.60
17827;DHT22;9038;48.208;16.308;2023-07-13T11:24:57;34.40;50.10
17827;DHT22;9038;48.208;16.308;2023-07-13T11:27:01;34.40;50.40
17827;DHT22;9038;48.208;16.308;2023-07-13T11:29:23;34.30;50.60
17827;DHT22;9038;48.208;16.308;2023-07-13T11:31:26;34.40;50.70
17827;DHT22;9038;48.208;16.308;2023-07-13T11:33:54;34.30;51.10
17827;DHT22;9038;48.208;16.308;2023-07-13T11:36:00;34.60;51.00
17827;DHT22;9038;48.208;16.308;2023-07-13T11:38:08;34.70;50.10
17827;DHT22;9038;48.208;16.308;2023-07-13T11:40:12;34.80;49.60
17827;DHT22;9038;48.208;16.308;2023-07-13T11:42:16;34.50;48.80
17827;DHT22;9038;48.208;16.308;2023-07-13T11:44:19;34.60;49.50
17827;DHT22;9038;48.208;16.308;2023-07-13T11:46:22;34.90;49.70
17827;DHT22;9038;48.208;16.308;2023-07-13T11:48:25;35.50;49.00
17827;DHT22;9038;48.208;16.308;2023-07-13T11:50:27;36.20;48.80
17827;DHT22;9038;48.208;16.308;2023-07-13T11:52:30;36.60;46.90
17827;DHT22;9038;48.208;16.308;2023-07-13T11:54:33;36.70;47.00
17827;DHT22;9038;48.208;16.308;2023-07-13T11:56:35;37.40;46.30
17827;DHT22;9038;48.208;16.308;2023-07-13T11:58:39;37.90;45.90
17827;DHT22;9038;48.208;16.308;2023-07-13T12:00:42;38.30;44.20
17827;DHT22;9038;48.208;16.308;2023-07-13T12:02:44;39.00;43.30
17827;DHT22;9038;48.208;16.308;2023-07-13T12:04:46;39.60;42.40
17827;DHT22;9038;48.208;16.308;2023-07-13T12:06:52;40.50;41.00
17827;DHT22;9038;48.208;16.308;2023-07-13T12:08:57;40.90;38.60
17827;DHT22;9038;48.208;16.308;2023-07-13T12:11:00;41.40;38.40
17827;DHT22;9038;48.208;16.308;2023-07-13T12:13:05;41.90;37.60
17827;DHT22;9038;48.208;16.308;2023-07-13T12:15:10;42.50;37.10
17827;DHT22;9038;48.208;16.308;2023-07-13T12:17:15;43.00;36.40
17827;DHT22;9038;48.208;16.308;2023-07-13T12:19:17;43.30;35.70
17827;DHT22;9038;48.208;16.308;2023-07-13T12:21:19;43.50;35.20
17827;DHT22;9038;48.208;16.308;2023-07-13T12:23:25;43.60;35.20
17827;DHT22;9038;48.208;16.308;2023-07-13T12:25:27;43.60;34.70
17827;DHT22;9038;48.208;16.308;2023-07-13T12:27:29;43.40;35.10
17827;DHT22;9038;48.208;16.308;2023-07-13T12:29:31;43.10;34.90
17827;DHT22;9038;48.208;16.308;2023-07-13T12:31:35;42.50;36.50
17827;DHT22;9038;48.208;16.308;2023-07-13T12:33:39;42.10;36.60
17827;DHT22;9038;48.208;16.308;2023-07-13T12:35:41;41.60;36.90
17827;DHT22;9038;48.208;16.308;2023-07-13T12:37:45;41.30;37.10
17827;DHT22;9038;48.208;16.308;2023-07-13T12:39:47;41.20;37.70
17827;DHT22;9038;48.208;16.308;2023-07-13T12:41:50;40.80;38.40
17827;DHT22;9038;48.208;16.308;2023-07-13T12:43:52;40.50;38.40
17827;DHT22;9038;48.208;16.308;2023-07-13T12:45:55;40.00;38.50
17827;DHT22;9038;48.208;16.308;2023-07-13T12:47:59;39.50;39.30
17827;DHT22;9038;48.208;16.308;2023-07-13T12:50:12;39.60;39.90
17827;DHT22;9038;48.208;16.308;2023-07-13T12:52:15;39.80;40.00
17827;DHT22;9038;48.208;16.308;2023-07-13T12:54:18;40.30;39.20
17827;DHT22;9038;48.208;16.308;2023-07-13T12:56:19;40.80;38.80
17827;DHT22;9038;48.208;16.308;2023-07-13T12:58:24;41.00;38.60
17827;DHT22;9038;48.208;16.308;2023-07-13T13:00:28;40.90;38.40
17827;DHT22;9038;48.208;16.308;2023-07-13T13:02:33;40.60;38.30
17827;DHT22;9038;48.208;16.308;2023-07-13T13:04:40;40.00;38.60
17827;DHT22;9038;48.208;16.308;2023-07-13T13:06:42;39.50;39.10
17827;DHT22;9038;48.208;16.308;2023-07-13T13:08:45;39.00;40.40
17827;DHT22;9038;48.208;16.308;2023-07-13T13:10:49;38.50;40.40
17827;DHT22;9038;48.208;16.308;2023-07-13T13:12:50;38.60;41.20
17827;DHT22;9038;48.208;16.308;2023-07-13T13:14:52;38.80;41.00
17827;DHT22;9038;48.208;16.308;2023-07-13T13:16:54;38.60;40.90
17827;DHT22;9038;48.208;16.308;2023-07-13T13:18:56;38.30;40.70